sensor_id;sensor_type;location;lat;lon;timestamp;P1;durP1;ratioP1;P2;durP2;ratioP2
44197;SDS011;30157;55.512;37.764;2024-01-30T00:00:05;24.98;;;10.95;;
44197;SDS011;30157;55.512;37.764;2024-01-30T00:02:32;23.25;;;10.40;;
44197;SDS011;30157;55.512;37.764;2024-01-30T00:05:01;26.45;;;11.45;;
44197;SDS011;30157;55.512;37.764;2024-01-30T00:07:29;27.60;;;10.65;;
44197;SDS011;30157;55.512;37.764;2024-01-30T00:09:55;21.58;;;10.05;;
44197;SDS011;30157;55.512;37.764;2024-01-30T00:12:21;24.13;;;10.88;;
44197;SDS011;30157;55.512;37.764;2024-01-30T00:14:46;22.98;;;10.23;;
44197;SDS011;30157;55.512;37.764;2024-01-30T00:17:12;24.15;;;10.63;;
44197;SDS011;30157;55.512;37.764;2024-01-30T00:19:40;23.65;;;10.77;;
44197;SDS011;30157;55.512;37.764;2024-01-30T00:22:07;25.73;;;10.38;;
44197;SDS011;30157;55.512;37.764;2024-01-30T00:24:33;26.05;;;10.50;;
44197;SDS011;30157;55.512;37.764;2024-01-30T00:26:59;23.10;;;11.18;;
44197;SDS011;30157;55.512;37.764;2024-01-30T00:29:25;25.65;;;11.70;;
44197;SDS011;30157;55.512;37.764;2024-01-30T00:31:55;24.33;;;10.52;;
44197;SDS011;30157;55.512;37.764;2024-01-30T00:34:21;22.70;;;10.73;;
44197;SDS011;30157;55.512;37.764;2024-01-30T00:36:46;24.50;;;10.10;;
44197;SDS011;30157;55.512;37.764;2024-01-30T00:39:12;24.05;;;11.23;;
44197;SDS011;30157;55.512;37.764;2024-01-30T00:41:41;20.92;;;9.88;;
44197;SDS011;30157;55.512;37.764;2024-01-30T00:44:07;23.35;;;10.20;;
44197;SDS011;30157;55.512;37.764;2024-01-30T00:46:33;22.95;;;10.18;;
44197;SDS011;30157;55.512;37.764;2024-01-30T00:48:58;21.40;;;9.90;;
44197;SDS011;30157;55.512;37.764;2024-01-30T00:51:24;22.95;;;10.13;;
44197;SDS011;30157;55.512;37.764;2024-01-30T00:53:50;23.73;;;10.73;;
44197;SDS011;30157;55.512;37.764;2024-01-30T00:56:16;22.92;;;10.50;;
44197;SDS011;30157;55.512;37.764;2024-01-30T00:58:44;24.63;;;11.63;;
44197;SDS011;30157;55.512;37.764;2024-01-30T01:01:09;23.90;;;10.63;;
44197;SDS011;30157;55.512;37.764;2024-01-30T01:03:35;24.80;;;10.93;;
44197;SDS011;30157;55.512;37.764;2024-01-30T01:06:01;23.48;;;11.07;;
44197;SDS011;30157;55.512;37.764;2024-01-30T01:08:27;20.15;;;9.73;;
44197;SDS011;30157;55.512;37.764;2024-01-30T01:10:52;21.38;;;9.82;;
44197;SDS011;30157;55.512;37.764;2024-01-30T01:13:18;24.55;;;11.52;;
44197;SDS011;30157;55.512;37.764;2024-01-30T01:15:44;22.70;;;10.40;;
44197;SDS011;30157;55.512;37.764;2024-01-30T01:18:09;23.63;;;11.15;;
44197;SDS011;30157;55.512;37.764;2024-01-30T01:20:35;23.30;;;10.90;;
44197;SDS011;30157;55.512;37.764;2024-01-30T01:23:01;22.33;;;10.50;;
44197;SDS011;30157;55.512;37.764;2024-01-30T01:25:26;23.02;;;10.48;;
44197;SDS011;30157;55.512;37.764;2024-01-30T01:27:52;24.42;;;11.23;;
44197;SDS011;30157;55.512;37.764;2024-01-30T01:30:18;23.40;;;11.05;;
44197;SDS011;30157;55.512;37.764;2024-01-30T01:32:50;22.33;;;10.32;;
44197;SDS011;30157;55.512;37.764;2024-01-30T01:35:27;19.42;;;10.43;;
44197;SDS011;30157;55.512;37.764;2024-01-30T01:37:54;23.60;;;10.95;;
44197;SDS011;30157;55.512;37.764;2024-01-30T01:40:23;24.80;;;11.23;;
44197;SDS011;30157;55.512;37.764;2024-01-30T01:42:50;20.50;;;9.52;;
44197;SDS011;30157;55.512;37.764;2024-01-30T01:45:20;19.65;;;9.85;;
44197;SDS011;30157;55.512;37.764;2024-01-30T01:47:48;23.05;;;10.20;;
44197;SDS011;30157;55.512;37.764;2024-01-30T01:50:16;20.08;;;9.35;;
44197;SDS011;30157;55.512;37.764;2024-01-30T01:52:47;19.77;;;9.77;;
44197;SDS011;30157;55.512;37.764;2024-01-30T01:55:14;23.45;;;10.98;;
44197;SDS011;30157;55.512;37.764;2024-01-30T01:57:41;22.95;;;10.40;;
44197;SDS011;30157;55.512;37.764;2024-01-30T02:00:07;20.60;;;10.50;;
44197;SDS011;30157;55.512;37.764;2024-01-30T02:02:36;25.38;;;10.80;;
44197;SDS011;30157;55.512;37.764;2024-01-30T02:05:02;21.40;;;10.43;;
44197;SDS011;30157;55.512;37.764;2024-01-30T02:07:31;24.77;;;11.15;;
44197;SDS011;30157;55.512;37.764;2024-01-30T02:09:56;23.98;;;10.93;;
44197;SDS011;30157;55.512;37.764;2024-01-30T02:12:22;23.40;;;10.23;;
44197;SDS011;30157;55.512;37.764;2024-01-30T02:14:49;22.58;;;10.38;;
44197;SDS011;30157;55.512;37.764;2024-01-30T02:17:17;22.58;;;11.05;;
44197;SDS011;30157;55.512;37.764;2024-01-30T02:19:43;24.92;;;10.38;;
44197;SDS011;30157;55.512;37.764;2024-01-30T02:22:08;21.38;;;10.00;;
44197;SDS011;30157;55.512;37.764;2024-01-30T02:24:34;21.27;;;9.75;;
44197;SDS011;30157;55.512;37.764;2024-01-30T02:27:00;20.23;;;9.95;;
44197;SDS011;30157;55.512;37.764;2024-01-30T02:29:26;21.15;;;9.63;;
44197;SDS011;30157;55.512;37.764;2024-01-30T02:31:51;19.77;;;10.63;;
44197;SDS011;30157;55.512;37.764;2024-01-30T02:34:18;20.65;;;9.82;;
44197;SDS011;30157;55.512;37.764;2024-01-30T02:36:45;23.85;;;10.95;;
44197;SDS011;30157;55.512;37.764;2024-01-30T02:39:11;20.17;;;9.70;;
44197;SDS011;30157;55.512;37.764;2024-01-30T02:41:37;19.90;;;9.95;;
44197;SDS011;30157;55.512;37.764;2024-01-30T02:44:03;19.17;;;9.57;;
44197;SDS011;30157;55.512;37.764;2024-01-30T02:46:29;18.15;;;9.60;;
44197;SDS011;30157;55.512;37.764;2024-01-30T02:48:55;20.80;;;9.98;;
44197;SDS011;30157;55.512;37.764;2024-01-30T02:51:21;20.88;;;10.13;;
44197;SDS011;30157;55.512;37.764;2024-01-30T02:53:47;22.08;;;10.70;;
44197;SDS011;30157;55.512;37.764;2024-01-30T02:56:13;20.80;;;10.45;;
44197;SDS011;30157;55.512;37.764;2024-01-30T02:58:40;18.23;;;9.48;;
44197;SDS011;30157;55.512;37.764;2024-01-30T03:01:06;18.35;;;9.85;;
44197;SDS011;30157;55.512;37.764;2024-01-30T03:03:33;22.15;;;10.43;;
44197;SDS011;30157;55.512;37.764;2024-01-30T03:06:01;18.63;;;9.45;;
44197;SDS011;30157;55.512;37.764;2024-01-30T03:08:27;17.83;;;9.65;;
44197;SDS011;30157;55.512;37.764;2024-01-30T03:10:53;20.17;;;9.82;;
44197;SDS011;30157;55.512;37.764;2024-01-30T03:13:19;20.40;;;10.02;;
44197;SDS011;30157;55.512;37.764;2024-01-30T03:15:45;18.25;;;8.98;;
44197;SDS011;30157;55.512;37.764;2024-01-30T03:18:11;19.48;;;9.57;;
44197;SDS011;30157;55.512;37.764;2024-01-30T03:20:37;21.33;;;10.68;;
44197;SDS011;30157;55.512;37.764;2024-01-30T03:23:03;18.38;;;9.60;;
44197;SDS011;30157;55.512;37.764;2024-01-30T03:25:29;18.55;;;9.13;;
44197;SDS011;30157;55.512;37.764;2024-01-30T03:27:54;20.42;;;8.80;;
44197;SDS011;30157;55.512;37.764;2024-01-30T03:30:20;20.75;;;9.30;;
44197;SDS011;30157;55.512;37.764;2024-01-30T03:32:46;16.02;;;8.80;;
44197;SDS011;30157;55.512;37.764;2024-01-30T03:35:12;19.35;;;9.45;;
44197;SDS011;30157;55.512;37.764;2024-01-30T03:37:37;21.27;;;10.63;;
44197;SDS011;30157;55.512;37.764;2024-01-30T03:40:03;18.55;;;9.10;;
44197;SDS011;30157;55.512;37.764;2024-01-30T03:42:29;17.80;;;8.32;;
44197;SDS011;30157;55.512;37.764;2024-01-30T03:44:56;19.70;;;9.77;;
44197;SDS011;30157;55.512;37.764;2024-01-30T03:47:21;15.75;;;9.00;;
44197;SDS011;30157;55.512;37.764;2024-01-30T03:49:47;21.50;;;10.63;;
44197;SDS011;30157;55.512;37.764;2024-01-30T03:52:13;18.02;;;9.10;;
44197;SDS011;30157;55.512;37.764;2024-01-30T03:54:39;20.50;;;10.07;;
44197;SDS011;30157;55.512;37.764;2024-01-30T03:57:04;17.80;;;9.60;;
44197;SDS011;30157;55.512;37.764;2024-01-30T03:59:30;20.65;;;10.18;;
44197;SDS011;30157;55.512;37.764;2024-01-30T04:01:56;16.33;;;9.45;;
44197;SDS011;30157;55.512;37.764;2024-01-30T04:04:22;21.13;;;10.60;;
44197;SDS011;30157;55.512;37.764;2024-01-30T04:06:48;18.33;;;9.40;;
44197;SDS011;30157;55.512;37.764;2024-01-30T04:09:14;16.33;;;8.65;;
44197;SDS011;30157;55.512;37.764;2024-01-30T04:11:40;16.60;;;8.50;;
44197;SDS011;30157;55.512;37.764;2024-01-30T04:14:10;16.52;;;8.48;;
44197;SDS011;30157;55.512;37.764;2024-01-30T04:16:36;18.90;;;8.95;;
44197;SDS011;30157;55.512;37.764;2024-01-30T04:19:02;17.30;;;8.88;;
44197;SDS011;30157;55.512;37.764;2024-01-30T04:21:27;17.35;;;9.48;;
44197;SDS011;30157;55.512;37.764;2024-01-30T04:23:53;17.95;;;9.00;;
44197;SDS011;30157;55.512;37.764;2024-01-30T04:26:19;17.85;;;8.80;;
44197;SDS011;30157;55.512;37.764;2024-01-30T04:28:45;17.00;;;8.57;;
44197;SDS011;30157;55.512;37.764;2024-01-30T04:31:11;17.60;;;9.10;;
44197;SDS011;30157;55.512;37.764;2024-01-30T04:33:37;18.60;;;9.18;;
44197;SDS011;30157;55.512;37.764;2024-01-30T04:36:03;15.77;;;8.25;;
44197;SDS011;30157;55.512;37.764;2024-01-30T04:38:31;18.85;;;10.02;;
44197;SDS011;30157;55.512;37.764;2024-01-30T04:40:57;16.33;;;9.13;;
44197;SDS011;30157;55.512;37.764;2024-01-30T04:43:22;18.30;;;9.32;;
44197;SDS011;30157;55.512;37.764;2024-01-30T04:45:49;19.13;;;9.68;;
44197;SDS011;30157;55.512;37.764;2024-01-30T04:48:15;18.67;;;9.57;;
44197;SDS011;30157;55.512;37.764;2024-01-30T04:50:41;19.35;;;9.80;;
44197;SDS011;30157;55.512;37.764;2024-01-30T04:53:07;19.10;;;10.23;;
44197;SDS011;30157;55.512;37.764;2024-01-30T04:55:36;17.52;;;9.30;;
44197;SDS011;30157;55.512;37.764;2024-01-30T04:58:03;19.10;;;9.07;;
44197;SDS011;30157;55.512;37.764;2024-01-30T05:00:29;17.35;;;9.70;;
44197;SDS011;30157;55.512;37.764;2024-01-30T05:02:55;19.92;;;10.43;;
44197;SDS011;30157;55.512;37.764;2024-01-30T05:05:21;16.23;;;9.32;;
44197;SDS011;30157;55.512;37.764;2024-01-30T05:07:47;16.50;;;8.75;;
44197;SDS011;30157;55.512;37.764;2024-01-30T05:10:13;17.55;;;9.73;;
44197;SDS011;30157;55.512;37.764;2024-01-30T05:12:39;15.80;;;9.02;;
44197;SDS011;30157;55.512;37.764;2024-01-30T05:15:05;19.10;;;9.60;;
44197;SDS011;30157;55.512;37.764;2024-01-30T05:17:32;17.23;;;9.48;;
44197;SDS011;30157;55.512;37.764;2024-01-30T05:19:58;16.52;;;9.45;;
44197;SDS011;30157;55.512;37.764;2024-01-30T05:22:24;17.88;;;8.52;;
44197;SDS011;30157;55.512;37.764;2024-01-30T05:24:50;17.33;;;9.07;;
44197;SDS011;30157;55.512;37.764;2024-01-30T05:27:16;18.50;;;9.20;;
44197;SDS011;30157;55.512;37.764;2024-01-30T05:29:42;16.95;;;9.07;;
44197;SDS011;30157;55.512;37.764;2024-01-30T05:32:07;16.10;;;8.88;;
44197;SDS011;30157;55.512;37.764;2024-01-30T05:34:34;17.83;;;8.88;;
44197;SDS011;30157;55.512;37.764;2024-01-30T05:37:01;17.00;;;9.52;;
44197;SDS011;30157;55.512;37.764;2024-01-30T05:39:27;16.05;;;9.13;;
44197;SDS011;30157;55.512;37.764;2024-01-30T05:41:52;19.92;;;10.35;;
44197;SDS011;30157;55.512;37.764;2024-01-30T05:44:18;18.08;;;9.70;;
44197;SDS011;30157;55.512;37.764;2024-01-30T05:46:44;17.17;;;9.57;;
44197;SDS011;30157;55.512;37.764;2024-01-30T05:49:10;17.75;;;9.65;;
44197;SDS011;30157;55.512;37.764;2024-01-30T05:51:35;21.75;;;10.60;;
44197;SDS011;30157;55.512;37.764;2024-01-30T05:54:01;16.25;;;9.45;;
44197;SDS011;30157;55.512;37.764;2024-01-30T05:56:29;17.75;;;9.90;;
44197;SDS011;30157;55.512;37.764;2024-01-30T05:58:55;17.25;;;9.80;;
44197;SDS011;30157;55.512;37.764;2024-01-30T06:01:20;20.50;;;10.60;;
44197;SDS011;30157;55.512;37.764;2024-01-30T06:03:46;16.67;;;8.95;;
44197;SDS011;30157;55.512;37.764;2024-01-30T06:06:12;17.20;;;9.63;;
44197;SDS011;30157;55.512;37.764;2024-01-30T06:08:38;19.58;;;10.35;;
44197;SDS011;30157;55.512;37.764;2024-01-30T06:11:04;18.13;;;9.68;;
44197;SDS011;30157;55.512;37.764;2024-01-30T06:13:29;18.77;;;9.00;;
44197;SDS011;30157;55.512;37.764;2024-01-30T06:15:57;16.15;;;8.57;;
44197;SDS011;30157;55.512;37.764;2024-01-30T06:18:23;20.58;;;9.77;;
44197;SDS011;30157;55.512;37.764;2024-01-30T06:20:49;18.40;;;9.48;;
44197;SDS011;30157;55.512;37.764;2024-01-30T06:23:15;17.75;;;9.38;;
44197;SDS011;30157;55.512;37.764;2024-01-30T06:25:40;20.85;;;9.75;;
44197;SDS011;30157;55.512;37.764;2024-01-30T06:28:06;17.27;;;8.75;;
44197;SDS011;30157;55.512;37.764;2024-01-30T06:30:32;15.27;;;8.45;;
44197;SDS011;30157;55.512;37.764;2024-01-30T06:32:58;15.55;;;8.63;;
44197;SDS011;30157;55.512;37.764;2024-01-30T06:35:24;17.42;;;9.85;;
44197;SDS011;30157;55.512;37.764;2024-01-30T06:37:50;20.05;;;10.13;;
44197;SDS011;30157;55.512;37.764;2024-01-30T06:40:15;21.00;;;10.75;;
44197;SDS011;30157;55.512;37.764;2024-01-30T06:42:41;20.13;;;10.45;;
44197;SDS011;30157;55.512;37.764;2024-01-30T06:45:07;17.15;;;9.88;;
44197;SDS011;30157;55.512;37.764;2024-01-30T06:47:33;16.23;;;9.23;;
44197;SDS011;30157;55.512;37.764;2024-01-30T06:49:59;22.10;;;10.80;;
44197;SDS011;30157;55.512;37.764;2024-01-30T06:52:25;18.67;;;10.93;;
44197;SDS011;30157;55.512;37.764;2024-01-30T06:54:51;22.83;;;10.40;;
44197;SDS011;30157;55.512;37.764;2024-01-30T06:57:16;16.48;;;9.50;;
44197;SDS011;30157;55.512;37.764;2024-01-30T06:59:42;21.88;;;12.30;;
44197;SDS011;30157;55.512;37.764;2024-01-30T07:02:09;18.60;;;10.32;;
44197;SDS011;30157;55.512;37.764;2024-01-30T07:04:36;15.93;;;8.65;;
44197;SDS011;30157;55.512;37.764;2024-01-30T07:07:06;18.42;;;9.75;;
44197;SDS011;30157;55.512;37.764;2024-01-30T07:09:38;21.42;;;9.73;;
44197;SDS011;30157;55.512;37.764;2024-01-30T07:12:04;19.35;;;9.65;;
44197;SDS011;30157;55.512;37.764;2024-01-30T07:14:31;20.20;;;10.35;;
44197;SDS011;30157;55.512;37.764;2024-01-30T07:16:57;21.00;;;10.20;;
44197;SDS011;30157;55.512;37.764;2024-01-30T07:19:23;24.40;;;14.10;;
44197;SDS011;30157;55.512;37.764;2024-01-30T07:21:49;22.90;;;12.45;;
44197;SDS011;30157;55.512;37.764;2024-01-30T07:24:16;18.33;;;10.20;;
44197;SDS011;30157;55.512;37.764;2024-01-30T07:26:42;18.33;;;10.27;;
44197;SDS011;30157;55.512;37.764;2024-01-30T07:29:08;18.42;;;9.60;;
44197;SDS011;30157;55.512;37.764;2024-01-30T07:31:34;21.10;;;9.95;;
44197;SDS011;30157;55.512;37.764;2024-01-30T07:34:00;19.98;;;10.80;;
44197;SDS011;30157;55.512;37.764;2024-01-30T07:36:26;19.80;;;10.60;;
44197;SDS011;30157;55.512;37.764;2024-01-30T07:38:52;19.38;;;10.63;;
44197;SDS011;30157;55.512;37.764;2024-01-30T07:41:19;20.25;;;10.27;;
44197;SDS011;30157;55.512;37.764;2024-01-30T07:43:45;17.02;;;9.75;;
44197;SDS011;30157;55.512;37.764;2024-01-30T07:46:11;20.42;;;10.05;;
44197;SDS011;30157;55.512;37.764;2024-01-30T07:48:37;17.85;;;9.93;;
44197;SDS011;30157;55.512;37.764;2024-01-30T07:51:03;19.88;;;10.75;;
44197;SDS011;30157;55.512;37.764;2024-01-30T07:53:29;19.08;;;10.20;;
44197;SDS011;30157;55.512;37.764;2024-01-30T07:55:59;18.27;;;10.75;;
44197;SDS011;30157;55.512;37.764;2024-01-30T07:58:28;17.50;;;10.82;;
44197;SDS011;30157;55.512;37.764;2024-01-30T08:00:54;24.67;;;11.50;;
44197;SDS011;30157;55.512;37.764;2024-01-30T08:03:22;22.02;;;9.95;;
44197;SDS011;30157;55.512;37.764;2024-01-30T08:05:48;20.35;;;10.50;;
44197;SDS011;30157;55.512;37.764;2024-01-30T08:08:13;19.23;;;10.45;;
44197;SDS011;30157;55.512;37.764;2024-01-30T08:10:39;19.52;;;9.48;;
44197;SDS011;30157;55.512;37.764;2024-01-30T08:13:06;20.25;;;11.57;;
44197;SDS011;30157;55.512;37.764;2024-01-30T08:15:31;24.55;;;11.65;;
44197;SDS011;30157;55.512;37.764;2024-01-30T08:17:57;17.98;;;10.05;;
44197;SDS011;30157;55.512;37.764;2024-01-30T08:20:24;19.30;;;10.88;;
44197;SDS011;30157;55.512;37.764;2024-01-30T08:22:51;19.50;;;9.75;;
44197;SDS011;30157;55.512;37.764;2024-01-30T08:25:17;18.25;;;10.27;;
44197;SDS011;30157;55.512;37.764;2024-01-30T08:27:45;17.98;;;9.48;;
44197;SDS011;30157;55.512;37.764;2024-01-30T08:30:11;18.88;;;9.05;;
44197;SDS011;30157;55.512;37.764;2024-01-30T08:32:38;18.10;;;10.02;;
44197;SDS011;30157;55.512;37.764;2024-01-30T08:35:04;19.52;;;10.50;;
44197;SDS011;30157;55.512;37.764;2024-01-30T08:37:31;17.42;;;10.55;;
44197;SDS011;30157;55.512;37.764;2024-01-30T08:39:57;19.13;;;10.45;;
44197;SDS011;30157;55.512;37.764;2024-01-30T08:42:23;18.48;;;10.30;;
44197;SDS011;30157;55.512;37.764;2024-01-30T08:44:49;21.02;;;11.25;;
44197;SDS011;30157;55.512;37.764;2024-01-30T08:47:17;19.63;;;9.65;;
44197;SDS011;30157;55.512;37.764;2024-01-30T08:49:44;18.38;;;10.88;;
44197;SDS011;30157;55.512;37.764;2024-01-30T08:52:11;18.48;;;9.95;;
44197;SDS011;30157;55.512;37.764;2024-01-30T08:54:37;17.83;;;10.15;;
44197;SDS011;30157;55.512;37.764;2024-01-30T08:57:03;17.58;;;9.40;;
44197;SDS011;30157;55.512;37.764;2024-01-30T08:59:30;23.25;;;11.13;;
44197;SDS011;30157;55.512;37.764;2024-01-30T09:01:56;19.48;;;10.38;;
44197;SDS011;30157;55.512;37.764;2024-01-30T09:04:24;19.80;;;10.63;;
44197;SDS011;30157;55.512;37.764;2024-01-30T09:06:50;19.77;;;11.15;;
44197;SDS011;30157;55.512;37.764;2024-01-30T09:09:16;18.17;;;9.88;;
44197;SDS011;30157;55.512;37.764;2024-01-30T09:11:43;19.77;;;11.25;;
44197;SDS011;30157;55.512;37.764;2024-01-30T09:14:10;20.13;;;11.20;;
44197;SDS011;30157;55.512;37.764;2024-01-30T09:16:43;22.35;;;10.95;;
44197;SDS011;30157;55.512;37.764;2024-01-30T09:19:09;17.55;;;9.65;;
44197;SDS011;30157;55.512;37.764;2024-01-30T09:21:35;19.05;;;9.63;;
44197;SDS011;30157;55.512;37.764;2024-01-30T09:24:02;18.88;;;11.13;;
44197;SDS011;30157;55.512;37.764;2024-01-30T09:26:31;22.70;;;11.70;;
44197;SDS011;30157;55.512;37.764;2024-01-30T09:28:57;21.83;;;11.63;;
44197;SDS011;30157;55.512;37.764;2024-01-30T09:31:23;19.38;;;9.80;;
44197;SDS011;30157;55.512;37.764;2024-01-30T09:33:49;20.52;;;10.10;;
44197;SDS011;30157;55.512;37.764;2024-01-30T09:36:16;21.98;;;10.73;;
44197;SDS011;30157;55.512;37.764;2024-01-30T09:38:44;19.15;;;10.07;;
44197;SDS011;30157;55.512;37.764;2024-01-30T09:41:10;20.05;;;9.82;;
44197;SDS011;30157;55.512;37.764;2024-01-30T09:43:38;17.25;;;9.80;;
44197;SDS011;30157;55.512;37.764;2024-01-30T09:46:08;20.38;;;10.43;;
44197;SDS011;30157;55.512;37.764;2024-01-30T09:48:41;22.83;;;11.18;;
44197;SDS011;30157;55.512;37.764;2024-01-30T09:51:09;20.75;;;11.57;;
44197;SDS011;30157;55.512;37.764;2024-01-30T09:53:35;21.00;;;10.95;;
44197;SDS011;30157;55.512;37.764;2024-01-30T09:56:02;19.80;;;11.45;;
44197;SDS011;30157;55.512;37.764;2024-01-30T09:58:29;17.20;;;10.90;;
44197;SDS011;30157;55.512;37.764;2024-01-30T10:00:55;20.55;;;12.00;;
44197;SDS011;30157;55.512;37.764;2024-01-30T10:03:21;24.27;;;14.38;;
44197;SDS011;30157;55.512;37.764;2024-01-30T10:05:52;24.35;;;12.63;;
44197;SDS011;30157;55.512;37.764;2024-01-30T10:08:18;20.33;;;11.18;;
44197;SDS011;30157;55.512;37.764;2024-01-30T10:10:48;26.08;;;15.40;;
44197;SDS011;30157;55.512;37.764;2024-01-30T10:13:15;21.92;;;12.25;;
44197;SDS011;30157;55.512;37.764;2024-01-30T10:15:42;22.08;;;12.02;;
44197;SDS011;30157;55.512;37.764;2024-01-30T10:18:08;23.30;;;12.27;;
44197;SDS011;30157;55.512;37.764;2024-01-30T10:20:35;19.85;;;10.07;;
44197;SDS011;30157;55.512;37.764;2024-01-30T10:23:04;20.23;;;11.20;;
44197;SDS011;30157;55.512;37.764;2024-01-30T10:25:30;21.58;;;10.73;;
44197;SDS011;30157;55.512;37.764;2024-01-30T10:27:57;20.13;;;10.93;;
44197;SDS011;30157;55.512;37.764;2024-01-30T10:30:24;20.15;;;10.20;;
44197;SDS011;30157;55.512;37.764;2024-01-30T10:32:50;21.38;;;11.35;;
44197;SDS011;30157;55.512;37.764;2024-01-30T10:35:17;20.80;;;10.90;;
44197;SDS011;30157;55.512;37.764;2024-01-30T10:37:43;18.63;;;10.60;;
44197;SDS011;30157;55.512;37.764;2024-01-30T10:40:12;19.20;;;10.65;;
44197;SDS011;30157;55.512;37.764;2024-01-30T10:42:42;21.05;;;11.73;;
44197;SDS011;30157;55.512;37.764;2024-01-30T10:45:10;21.13;;;12.25;;
44197;SDS011;30157;55.512;37.764;2024-01-30T10:47:39;18.73;;;11.43;;
44197;SDS011;30157;55.512;37.764;2024-01-30T10:50:09;23.60;;;11.85;;
44197;SDS011;30157;55.512;37.764;2024-01-30T10:53:13;19.85;;;11.23;;
44197;SDS011;30157;55.512;37.764;2024-01-30T10:55:41;23.45;;;12.85;;
44197;SDS011;30157;55.512;37.764;2024-01-30T10:58:07;22.33;;;12.27;;
44197;SDS011;30157;55.512;37.764;2024-01-30T11:00:35;20.52;;;11.10;;
44197;SDS011;30157;55.512;37.764;2024-01-30T11:03:01;22.55;;;11.20;;
44197;SDS011;30157;55.512;37.764;2024-01-30T11:05:29;21.60;;;11.70;;
44197;SDS011;30157;55.512;37.764;2024-01-30T11:07:54;23.75;;;12.73;;
44197;SDS011;30157;55.512;37.764;2024-01-30T11:10:20;23.63;;;11.70;;
44197;SDS011;30157;55.512;37.764;2024-01-30T11:12:46;24.20;;;11.82;;
44197;SDS011;30157;55.512;37.764;2024-01-30T11:15:13;22.10;;;11.68;;
44197;SDS011;30157;55.512;37.764;2024-01-30T11:20:09;19.95;;;11.23;;
44197;SDS011;30157;55.512;37.764;2024-01-30T11:22:37;26.30;;;13.07;;
44197;SDS011;30157;55.512;37.764;2024-01-30T11:25:03;20.58;;;10.98;;
44197;SDS011;30157;55.512;37.764;2024-01-30T11:27:33;20.35;;;11.20;;
44197;SDS011;30157;55.512;37.764;2024-01-30T11:30:02;19.02;;;11.15;;
44197;SDS011;30157;55.512;37.764;2024-01-30T11:32:30;22.38;;;11.38;;
44197;SDS011;30157;55.512;37.764;2024-01-30T11:34:56;20.65;;;11.18;;
44197;SDS011;30157;55.512;37.764;2024-01-30T11:37:25;21.80;;;12.30;;
44197;SDS011;30157;55.512;37.764;2024-01-30T11:39:53;21.00;;;11.18;;
44197;SDS011;30157;55.512;37.764;2024-01-30T11:42:19;20.98;;;10.30;;
44197;SDS011;30157;55.512;37.764;2024-01-30T11:44:48;26.13;;;13.98;;
44197;SDS011;30157;55.512;37.764;2024-01-30T11:47:14;21.50;;;11.57;;
44197;SDS011;30157;55.512;37.764;2024-01-30T11:49:41;19.10;;;10.88;;
44197;SDS011;30157;55.512;37.764;2024-01-30T11:52:08;23.45;;;11.50;;
44197;SDS011;30157;55.512;37.764;2024-01-30T11:54:33;21.50;;;10.50;;
44197;SDS011;30157;55.512;37.764;2024-01-30T11:57:00;22.50;;;10.48;;
44197;SDS011;30157;55.512;37.764;2024-01-30T11:59:26;19.27;;;10.85;;
44197;SDS011;30157;55.512;37.764;2024-01-30T12:01:52;27.27;;;12.95;;
44197;SDS011;30157;55.512;37.764;2024-01-30T12:04:18;22.42;;;11.80;;
44197;SDS011;30157;55.512;37.764;2024-01-30T12:06:44;26.98;;;12.18;;
44197;SDS011;30157;55.512;37.764;2024-01-30T12:09:10;21.30;;;12.07;;
44197;SDS011;30157;55.512;37.764;2024-01-30T12:11:45;21.73;;;11.05;;
44197;SDS011;30157;55.512;37.764;2024-01-30T12:14:11;23.25;;;13.02;;
44197;SDS011;30157;55.512;37.764;2024-01-30T12:16:38;25.88;;;14.68;;
44197;SDS011;30157;55.512;37.764;2024-01-30T12:19:04;26.23;;;14.63;;
44197;SDS011;30157;55.512;37.764;2024-01-30T12:21:29;25.13;;;13.48;;
44197;SDS011;30157;55.512;37.764;2024-01-30T12:23:56;30.13;;;14.10;;
44197;SDS011;30157;55.512;37.764;2024-01-30T12:26:23;24.52;;;13.73;;
44197;SDS011;30157;55.512;37.764;2024-01-30T12:28:50;30.30;;;16.42;;
44197;SDS011;30157;55.512;37.764;2024-01-30T12:31:27;26.00;;;14.77;;
44197;SDS011;30157;55.512;37.764;2024-01-30T12:33:53;25.60;;;12.40;;
44197;SDS011;30157;55.512;37.764;2024-01-30T12:36:20;20.77;;;11.70;;
44197;SDS011;30157;55.512;37.764;2024-01-30T12:38:47;22.52;;;12.07;;
44197;SDS011;30157;55.512;37.764;2024-01-30T12:41:16;25.13;;;12.88;;
44197;SDS011;30157;55.512;37.764;2024-01-30T12:43:42;29.55;;;14.40;;
44197;SDS011;30157;55.512;37.764;2024-01-30T12:46:08;31.05;;;15.05;;
44197;SDS011;30157;55.512;37.764;2024-01-30T12:48:34;27.98;;;14.38;;
44197;SDS011;30157;55.512;37.764;2024-01-30T12:51:00;30.00;;;14.50;;
44197;SDS011;30157;55.512;37.764;2024-01-30T12:53:26;27.52;;;13.88;;
44197;SDS011;30157;55.512;37.764;2024-01-30T12:55:52;28.88;;;15.00;;
44197;SDS011;30157;55.512;37.764;2024-01-30T12:58:19;28.30;;;14.75;;
44197;SDS011;30157;55.512;37.764;2024-01-30T13:00:45;26.95;;;13.90;;
44197;SDS011;30157;55.512;37.764;2024-01-30T13:03:12;24.67;;;13.25;;
44197;SDS011;30157;55.512;37.764;2024-01-30T13:05:38;28.77;;;13.73;;
44197;SDS011;30157;55.512;37.764;2024-01-30T13:08:04;30.83;;;15.85;;
44197;SDS011;30157;55.512;37.764;2024-01-30T13:10:30;32.80;;;15.52;;
44197;SDS011;30157;55.512;37.764;2024-01-30T13:12:56;27.05;;;14.07;;
44197;SDS011;30157;55.512;37.764;2024-01-30T13:15:22;26.88;;;13.85;;
44197;SDS011;30157;55.512;37.764;2024-01-30T13:17:48;23.77;;;13.48;;
44197;SDS011;30157;55.512;37.764;2024-01-30T13:20:18;26.40;;;14.95;;
44197;SDS011;30157;55.512;37.764;2024-01-30T13:22:52;23.67;;;13.45;;
44197;SDS011;30157;55.512;37.764;2024-01-30T13:25:37;25.33;;;14.00;;
44197;SDS011;30157;55.512;37.764;2024-01-30T13:28:06;23.58;;;14.05;;
44197;SDS011;30157;55.512;37.764;2024-01-30T13:30:32;26.67;;;14.85;;
44197;SDS011;30157;55.512;37.764;2024-01-30T13:32:58;25.02;;;14.13;;
44197;SDS011;30157;55.512;37.764;2024-01-30T13:35:24;26.88;;;14.23;;
44197;SDS011;30157;55.512;37.764;2024-01-30T13:37:53;29.38;;;16.13;;
44197;SDS011;30157;55.512;37.764;2024-01-30T13:40:27;29.35;;;15.40;;
44197;SDS011;30157;55.512;37.764;2024-01-30T13:42:57;26.42;;;15.32;;
44197;SDS011;30157;55.512;37.764;2024-01-30T13:45:26;35.85;;;19.42;;
44197;SDS011;30157;55.512;37.764;2024-01-30T13:48:02;36.40;;;22.83;;
44197;SDS011;30157;55.512;37.764;2024-01-30T13:50:30;43.25;;;22.50;;
44197;SDS011;30157;55.512;37.764;2024-01-30T13:53:06;39.00;;;22.77;;
44197;SDS011;30157;55.512;37.764;2024-01-30T13:55:34;37.67;;;21.42;;
44197;SDS011;30157;55.512;37.764;2024-01-30T13:58:00;35.45;;;19.48;;
44197;SDS011;30157;55.512;37.764;2024-01-30T14:00:29;29.67;;;18.02;;
44197;SDS011;30157;55.512;37.764;2024-01-30T14:02:57;33.97;;;19.23;;
44197;SDS011;30157;55.512;37.764;2024-01-30T14:05:27;32.08;;;16.70;;
44197;SDS011;30157;55.512;37.764;2024-01-30T14:08:01;29.33;;;14.10;;
44197;SDS011;30157;55.512;37.764;2024-01-30T14:10:37;34.60;;;17.48;;
44197;SDS011;30157;55.512;37.764;2024-01-30T14:13:15;30.90;;;17.20;;